createdAt,value
2022-12-13T00:00:20.340Z,4.38
2022-12-13T00:03:08.205Z,4.25
2022-12-13T00:05:54.710Z,3.95
2022-12-13T00:08:41.848Z,4.15
2022-12-13T00:11:28.608Z,4.53
2022-12-13T00:14:14.469Z,4.05
2022-12-13T00:17:00.256Z,4.90
2022-12-13T00:19:48.127Z,4.57
2022-12-13T00:22:33.729Z,4.10
2022-12-13T00:25:22.105Z,4.60
2022-12-13T00:28:08.737Z,4.13
2022-12-13T00:31:27.007Z,4.10
2022-12-13T00:34:07.990Z,4.50
2022-12-13T00:36:55.104Z,4.30
2022-12-13T00:39:41.143Z,4.40
2022-12-13T00:42:26.783Z,4.50
2022-12-13T00:45:12.379Z,4.18
2022-12-13T00:47:58.133Z,4.60
2022-12-13T00:50:43.761Z,4.38
2022-12-13T00:53:29.270Z,4.30
2022-12-13T00:56:36.792Z,4.22
2022-12-13T00:59:22.202Z,3.97
2022-12-13T01:02:07.882Z,3.85
2022-12-13T01:04:53.768Z,4.68
2022-12-13T01:07:44.430Z,4.45
2022-12-13T01:10:30.443Z,4.75
2022-12-13T01:13:15.969Z,4.10
2022-12-13T01:16:05.494Z,4.32
2022-12-13T01:18:51.420Z,4.28
2022-12-13T01:21:38.306Z,4.85
2022-12-13T01:24:26.193Z,4.72
2022-12-13T01:27:12.177Z,5.07
2022-12-13T01:29:57.535Z,4.28
2022-12-13T01:32:42.907Z,4.03
2022-12-13T01:35:28.369Z,4.20
2022-12-13T01:38:15.660Z,3.60
2022-12-13T01:41:02.552Z,4.15
2022-12-13T01:44:06.618Z,4.72
2022-12-13T01:46:54.082Z,5.55
2022-12-13T01:49:40.059Z,5.95
2022-12-13T01:52:28.439Z,4.22
2022-12-13T01:55:18.546Z,3.67
2022-12-13T01:58:05.994Z,4.22
2022-12-13T02:00:52.461Z,4.15
2022-12-13T02:03:38.129Z,4.95
2022-12-13T02:06:47.543Z,4.90
2022-12-13T02:09:36.099Z,4.75
2022-12-13T02:12:21.997Z,5.22
2022-12-13T02:15:18.929Z,4.85
2022-12-13T02:18:25.719Z,5.85
2022-12-13T02:21:42.930Z,6.70
2022-12-13T02:25:03.705Z,6.75
2022-12-13T02:28:43.104Z,5.85
2022-12-13T02:31:49.093Z,5.55
2022-12-13T02:34:57.821Z,5.22
2022-12-13T02:38:29.511Z,5.55
2022-12-13T02:41:51.353Z,6.13
2022-12-13T02:44:47.178Z,6.40
2022-12-13T02:47:37.597Z,5.88
2022-12-13T02:50:26.175Z,5.78
2022-12-13T02:53:15.306Z,6.70
2022-12-13T02:56:01.120Z,5.97
2022-12-13T02:58:54.471Z,6.97
2022-12-13T03:02:31.486Z,6.30
2022-12-13T03:06:13.894Z,6.65
2022-12-13T03:09:33.900Z,6.65
2022-12-13T03:12:50.446Z,6.60
2022-12-13T03:15:56.502Z,7.00
2022-12-13T03:18:43.453Z,6.97
2022-12-13T03:21:30.007Z,7.32
2022-12-13T03:24:21.825Z,7.25
2022-12-13T03:27:07.609Z,7.50
2022-12-13T03:29:53.142Z,7.35
2022-12-13T03:32:38.709Z,7.45
2022-12-13T03:35:25.107Z,7.07
2022-12-13T03:38:21.800Z,6.47
2022-12-13T03:41:17.751Z,5.65
2022-12-13T03:44:08.650Z,6.90
2022-12-13T03:46:54.253Z,6.53
2022-12-13T03:49:39.754Z,6.18
2022-12-13T03:52:25.447Z,6.40
2022-12-13T03:55:11.274Z,5.90
2022-12-13T03:57:57.116Z,5.93
2022-12-13T04:00:42.703Z,5.95
2022-12-13T04:03:28.863Z,6.22
2022-12-13T04:06:21.626Z,5.70
2022-12-13T04:09:08.509Z,6.40
2022-12-13T04:12:15.689Z,6.10
2022-12-13T04:15:01.361Z,5.80
2022-12-13T04:17:51.216Z,6.00
2022-12-13T04:20:37.114Z,6.03
2022-12-13T04:23:23.488Z,5.38
2022-12-13T04:26:09.429Z,5.82
2022-12-13T04:28:55.110Z,5.85
2022-12-13T04:31:40.864Z,5.63
2022-12-13T04:34:28.047Z,5.40
2022-12-13T04:37:16.670Z,5.47
2022-12-13T04:40:02.406Z,6.03
2022-12-13T04:42:47.999Z,6.82
2022-12-13T04:45:39.796Z,5.30
2022-12-13T04:48:30.682Z,5.00
2022-12-13T04:51:17.265Z,5.70
2022-12-13T04:54:23.484Z,5.28
2022-12-13T04:57:11.632Z,5.65
2022-12-13T04:59:57.601Z,5.90
2022-12-13T05:02:43.664Z,5.10
2022-12-13T05:05:29.326Z,5.30
2022-12-13T05:08:14.961Z,4.80
2022-12-13T05:11:00.863Z,5.10
2022-12-13T05:13:46.384Z,5.05
2022-12-13T05:16:31.793Z,5.20
2022-12-13T05:19:17.512Z,5.03
2022-12-13T05:22:02.987Z,5.63
2022-12-13T05:24:49.055Z,5.30
2022-12-13T05:27:34.506Z,5.82
2022-12-13T05:30:20.686Z,5.72
2022-12-13T05:33:06.122Z,5.75
2022-12-13T05:35:57.699Z,4.72
2022-12-13T05:38:46.043Z,5.32
2022-12-13T05:41:35.871Z,5.82
2022-12-13T05:44:21.492Z,6.20
2022-12-13T05:47:06.940Z,6.13
2022-12-13T05:49:52.474Z,6.18
2022-12-13T05:52:38.018Z,6.18
2022-12-13T05:55:23.887Z,5.88
2022-12-13T05:58:13.274Z,6.38
2022-12-13T06:01:12.994Z,6.00
2022-12-13T06:03:58.848Z,6.38
2022-12-13T06:06:44.913Z,7.63
2022-12-13T06:09:30.951Z,7.10
2022-12-13T06:12:31.422Z,8.07
2022-12-13T06:15:22.421Z,8.77
2022-12-13T06:18:08.641Z,7.80
2022-12-13T06:21:00.276Z,7.90
2022-12-13T06:23:46.242Z,7.05
2022-12-13T06:26:31.855Z,6.65
2022-12-13T06:29:24.226Z,6.25
2022-12-13T06:32:11.592Z,7.68
2022-12-13T06:34:57.748Z,6.68
2022-12-13T06:37:43.328Z,7.10
2022-12-13T06:40:33.841Z,6.75
2022-12-13T06:43:21.322Z,7.18
2022-12-13T06:46:07.181Z,6.93
2022-12-13T06:48:55.007Z,9.57
2022-12-13T06:51:40.548Z,8.05
2022-12-13T06:54:26.162Z,9.02
2022-12-13T06:57:12.938Z,7.95
2022-12-13T06:59:58.437Z,8.32
2022-12-13T07:02:43.922Z,9.63
2022-12-13T07:05:29.663Z,7.95
2022-12-13T07:08:22.141Z,7.05
2022-12-13T07:11:13.490Z,7.30
2022-12-13T07:14:00.117Z,7.82
2022-12-13T07:16:45.769Z,7.05
2022-12-13T07:19:35.330Z,6.97
2022-12-13T07:22:21.487Z,7.78
2022-12-13T07:25:07.775Z,7.53
2022-12-13T07:28:13.285Z,7.38
2022-12-13T07:31:02.414Z,8.40
2022-12-13T07:33:47.814Z,7.75
2022-12-13T07:36:33.307Z,9.32
2022-12-13T07:39:19.220Z,8.07
2022-12-13T07:42:04.750Z,7.00
2022-12-13T07:44:49.983Z,7.35
2022-12-13T07:47:35.491Z,8.35
2022-12-13T07:50:23.973Z,7.68
2022-12-13T07:53:11.681Z,7.15
2022-12-13T07:55:57.323Z,6.57
2022-12-13T07:58:44.088Z,7.45
2022-12-13T08:01:34.554Z,6.50
2022-12-13T08:04:20.486Z,6.47
2022-12-13T08:07:09.996Z,6.65
2022-12-13T08:09:55.776Z,6.95
2022-12-13T08:12:41.309Z,6.75
2022-12-13T08:15:26.801Z,6.80
2022-12-13T08:18:12.275Z,6.30
2022-12-13T08:21:23.917Z,6.95
2022-12-13T08:24:15.689Z,6.80
2022-12-13T08:27:03.283Z,6.78
2022-12-13T08:29:49.296Z,6.70
2022-12-13T08:32:34.684Z,7.82
2022-12-13T08:35:19.989Z,9.35
2022-12-13T08:38:05.575Z,6.63
2022-12-13T08:40:51.404Z,7.45
2022-12-13T08:43:37.792Z,7.32
2022-12-13T08:46:23.212Z,7.10
2022-12-13T08:49:08.618Z,7.95
2022-12-13T08:51:54.503Z,7.60
2022-12-13T08:54:39.800Z,7.75
2022-12-13T08:57:25.376Z,7.80
2022-12-13T09:00:19.900Z,7.30
2022-12-13T09:03:09.836Z,7.90
2022-12-13T09:06:10.538Z,8.30
2022-12-13T09:08:56.163Z,8.77
2022-12-13T09:11:42.109Z,6.90
2022-12-13T09:14:33.650Z,6.72
2022-12-13T09:20:29.766Z,6.68
2022-12-13T09:23:24.139Z,6.80
2022-12-13T09:26:16.434Z,7.32
2022-12-13T09:29:10.759Z,5.47
2022-12-13T09:31:57.936Z,7.40
2022-12-13T09:34:43.473Z,6.85
2022-12-13T09:37:32.175Z,7.25
2022-12-13T09:40:26.646Z,6.57
2022-12-13T09:43:32.031Z,7.43
2022-12-13T09:46:44.688Z,7.10
2022-12-13T09:49:36.998Z,7.80
2022-12-13T09:52:25.800Z,6.80
2022-12-13T09:55:30.264Z,6.25
2022-12-13T09:58:26.371Z,6.85
2022-12-13T10:01:12.528Z,7.50
2022-12-13T10:04:00.483Z,6.63
2022-12-13T10:06:46.190Z,6.35
2022-12-13T10:09:32.432Z,6.47
2022-12-13T10:12:18.161Z,6.97
2022-12-13T10:15:04.713Z,7.05
2022-12-13T10:17:55.241Z,6.82
2022-12-13T10:20:42.287Z,6.93
2022-12-13T10:23:42.810Z,7.63
2022-12-13T10:26:39.129Z,6.97
2022-12-13T10:29:24.561Z,6.85
2022-12-13T10:32:13.810Z,6.90
2022-12-13T10:34:59.281Z,7.35
2022-12-13T10:37:44.799Z,7.28
2022-12-13T10:40:48.827Z,6.55
2022-12-13T10:43:36.096Z,6.65
2022-12-13T10:46:24.827Z,7.10
2022-12-13T10:49:25.223Z,7.65
2022-12-13T10:52:33.674Z,7.38
2022-12-13T10:55:28.902Z,6.82
2022-12-13T10:58:19.938Z,7.03
2022-12-13T11:01:21.509Z,6.68
2022-12-13T11:04:34.699Z,7.22
2022-12-13T11:07:34.186Z,6.90
2022-12-13T11:10:29.747Z,7.25
2022-12-13T11:13:44.799Z,7.30
2022-12-13T11:16:40.619Z,6.18
2022-12-13T11:19:48.025Z,6.60
2022-12-13T11:22:38.413Z,7.00
2022-12-13T11:25:30.692Z,6.90
2022-12-13T11:28:31.845Z,6.80
2022-12-13T11:32:13.123Z,6.63
2022-12-13T11:36:00.680Z,6.30
2022-12-13T11:39:13.205Z,6.95
2022-12-13T11:42:27.892Z,7.07
2022-12-13T11:45:31.820Z,6.50
2022-12-13T11:48:20.333Z,6.13
2022-12-13T11:51:11.239Z,6.20
2022-12-13T11:54:09.272Z,6.35
2022-12-13T11:57:00.086Z,6.90
2022-12-13T12:00:02.663Z,6.95
2022-12-13T12:02:56.847Z,6.05
2022-12-13T12:05:55.760Z,6.63
2022-12-13T12:09:01.899Z,7.40
2022-12-13T12:12:22.004Z,6.82
2022-12-13T12:15:26.481Z,7.75
2022-12-13T12:18:17.197Z,6.88
2022-12-13T12:21:05.039Z,7.00
2022-12-13T12:24:26.956Z,6.47
2022-12-13T12:27:26.119Z,6.57
2022-12-13T12:30:23.026Z,6.90
2022-12-13T12:33:49.766Z,6.70
2022-12-13T12:37:02.889Z,6.50
2022-12-13T12:40:22.608Z,6.85
2022-12-13T12:43:25.891Z,6.55
2022-12-13T12:46:52.371Z,6.40
2022-12-13T12:50:16.806Z,6.15
2022-12-13T12:53:40.415Z,5.68
2022-12-13T12:56:57.190Z,6.57
2022-12-13T13:00:24.298Z,6.75
2022-12-13T13:03:26.519Z,6.63
2022-12-13T13:06:40.669Z,6.55
2022-12-13T13:09:27.344Z,5.75
2022-12-13T13:12:28.907Z,6.38
2022-12-13T13:15:33.430Z,7.10
2022-12-13T13:18:51.920Z,7.03
2022-12-13T13:22:02.473Z,6.60
2022-12-13T13:25:26.067Z,7.00
2022-12-13T13:28:17.896Z,6.88
2022-12-13T13:31:09.275Z,6.95
2022-12-13T13:33:54.827Z,7.07
2022-12-13T13:36:41.115Z,6.47
2022-12-13T13:39:29.460Z,7.07
2022-12-13T13:42:15.061Z,7.57
2022-12-13T13:45:23.619Z,7.63
2022-12-13T13:49:09.656Z,7.00
2022-12-13T13:52:25.325Z,8.05
2022-12-13T13:55:45.571Z,8.20
2022-12-13T13:59:13.397Z,8.50
2022-12-13T14:02:41.839Z,8.27
2022-12-13T14:06:02.686Z,9.25
2022-12-13T14:09:23.579Z,9.48
2022-12-13T14:13:13.565Z,8.77
2022-12-13T14:16:06.455Z,7.95
2022-12-13T14:19:06.717Z,8.32
2022-12-13T14:22:10.160Z,8.68
2022-12-13T14:25:27.685Z,7.90
2022-12-13T14:28:13.564Z,7.55
2022-12-13T14:30:47.789Z,7.18
2022-12-13T14:33:26.600Z,7.32
2022-12-13T14:35:56.329Z,7.53
2022-12-13T14:38:27.037Z,7.63
2022-12-13T14:41:00.037Z,7.55
2022-12-13T14:43:33.130Z,7.57
2022-12-13T14:46:07.240Z,7.75
2022-12-13T14:48:53.774Z,8.68
2022-12-13T14:51:38.310Z,8.38
2022-12-13T14:54:25.925Z,9.48
2022-12-13T14:57:04.959Z,9.23
2022-12-13T14:59:33.596Z,10.25
2022-12-13T15:02:04.892Z,10.77
2022-12-13T15:04:36.054Z,10.00
2022-12-13T15:07:07.612Z,11.05
2022-12-13T15:09:44.567Z,9.60
2022-12-13T15:12:24.682Z,9.65
2022-12-13T15:15:03.053Z,10.43
2022-12-13T15:17:40.860Z,11.25
2022-12-13T15:20:32.050Z,10.75
2022-12-13T15:23:19.433Z,11.45
2022-12-13T15:25:59.140Z,10.35
2022-12-13T15:28:34.583Z,9.32
2022-12-13T15:31:04.583Z,9.85
2022-12-13T15:33:36.546Z,10.25
2022-12-13T15:36:23.629Z,9.27
2022-12-13T15:38:56.483Z,9.90
2022-12-13T15:41:33.899Z,8.95
2022-12-13T15:44:08.095Z,9.05
2022-12-13T15:46:38.235Z,8.68
2022-12-13T15:49:23.571Z,9.48
2022-12-13T15:51:57.474Z,9.73
2022-12-13T15:54:24.899Z,11.07
2022-12-13T15:57:15.820Z,11.77
2022-12-13T15:59:44.555Z,12.70
2022-12-13T16:02:23.519Z,13.27
2022-12-13T16:04:51.517Z,13.90
2022-12-13T16:07:40.297Z,16.42
2022-12-13T16:10:08.959Z,15.68
2022-12-13T16:12:47.879Z,15.15
2022-12-13T16:15:49.404Z,14.52
2022-12-13T16:18:32.124Z,13.45
2022-12-13T16:20:59.933Z,12.38
2022-12-13T16:23:27.688Z,11.25
2022-12-13T16:25:55.337Z,11.00
2022-12-13T16:28:25.920Z,11.43
2022-12-13T16:30:53.267Z,10.85
2022-12-13T16:33:30.529Z,10.23
2022-12-13T16:36:00.080Z,11.02
2022-12-13T16:38:30.165Z,11.50
2022-12-13T16:41:00.841Z,10.52
2022-12-13T16:43:52.835Z,10.52
2022-12-13T16:47:14.732Z,10.40
2022-12-13T16:49:21.167Z,10.38
2022-12-13T16:51:55.044Z,10.93
2022-12-13T16:54:26.326Z,10.57
2022-12-13T16:56:54.580Z,10.32
2022-12-13T16:59:27.055Z,11.45
2022-12-13T17:01:54.747Z,11.30
2022-12-13T17:04:24.653Z,11.77
2022-12-13T17:06:55.081Z,11.52
2022-12-13T17:09:24.344Z,11.93
2022-12-13T17:11:51.562Z,12.40
2022-12-13T17:14:20.826Z,13.23
2022-12-13T17:16:48.001Z,14.77
2022-12-13T17:19:15.804Z,14.20
2022-12-13T17:21:43.147Z,15.45
2022-12-13T17:24:10.282Z,13.88
2022-12-13T17:26:37.290Z,14.40
2022-12-13T17:29:04.740Z,15.82
2022-12-13T17:31:35.691Z,15.75
2022-12-13T17:34:04.519Z,12.75
2022-12-13T17:36:34.123Z,16.23
2022-12-13T17:39:03.973Z,17.20
2022-12-13T17:41:31.067Z,17.13
2022-12-13T17:44:01.291Z,15.57
2022-12-13T17:46:28.472Z,14.80
2022-12-13T17:48:55.487Z,14.70
2022-12-13T17:51:22.681Z,13.43
2022-12-13T17:53:49.685Z,14.13
2022-12-13T17:56:17.732Z,12.75
2022-12-13T17:58:45.039Z,12.43
2022-12-13T18:01:26.631Z,12.35
2022-12-13T18:03:57.809Z,10.02
2022-12-13T18:06:26.243Z,13.05
2022-12-13T18:08:53.603Z,13.07
2022-12-13T18:11:33.010Z,11.95
2022-12-13T18:14:02.246Z,11.68
2022-12-13T18:16:36.214Z,10.38
2022-12-13T18:19:12.293Z,11.32
2022-12-13T18:21:43.641Z,10.30
2022-12-13T18:24:12.355Z,11.85
2022-12-13T18:26:39.479Z,12.20
2022-12-13T18:29:06.718Z,11.70
2022-12-13T18:31:33.851Z,11.02
2022-12-13T18:34:00.992Z,11.30
2022-12-13T18:36:28.329Z,12.02
2022-12-13T18:38:55.642Z,11.95
2022-12-13T18:41:28.227Z,12.50
2022-12-13T18:44:08.172Z,11.63
2022-12-13T18:46:38.213Z,11.65
2022-12-13T18:49:06.746Z,11.40
2022-12-13T18:51:34.254Z,12.07
2022-12-13T18:54:01.378Z,13.38
2022-12-13T18:56:28.481Z,12.52
2022-12-13T18:58:59.535Z,14.63
2022-12-13T19:01:28.134Z,15.90
2022-12-13T19:03:55.417Z,15.20
2022-12-13T19:06:27.620Z,15.30
2022-12-13T19:11:26.346Z,16.48
2022-12-13T19:13:53.982Z,17.02
2022-12-13T19:16:26.166Z,17.00
2022-12-13T19:18:57.422Z,19.00
2022-12-13T19:21:24.546Z,18.00
2022-12-13T19:23:57.304Z,18.83
2022-12-13T19:26:25.423Z,17.83
2022-12-13T19:28:52.437Z,18.20
2022-12-13T19:31:25.564Z,18.73
2022-12-13T19:34:02.361Z,19.45
2022-12-13T19:36:32.186Z,20.13
2022-12-13T19:38:59.381Z,20.40
2022-12-13T19:41:26.635Z,21.33
2022-12-13T19:43:55.897Z,20.45
2022-12-13T19:46:23.040Z,20.88
2022-12-13T19:48:51.064Z,24.23
2022-12-13T19:51:18.478Z,29.35
2022-12-13T19:53:45.503Z,29.80
2022-12-13T19:56:17.814Z,33.65
2022-12-13T19:58:47.115Z,28.13
2022-12-13T20:01:17.453Z,27.98
2022-12-13T20:03:46.481Z,28.98
2022-12-13T20:06:18.458Z,28.13
2022-12-13T20:08:46.482Z,26.42
2022-12-13T20:11:21.202Z,25.98
2022-12-13T20:13:52.719Z,26.27
2022-12-13T20:16:24.451Z,25.20
2022-12-13T20:18:59.914Z,24.02
2022-12-13T20:21:28.710Z,25.88
2022-12-13T20:23:56.529Z,26.33
2022-12-13T20:26:29.666Z,26.08
2022-12-13T20:28:56.991Z,24.17
2022-12-13T20:31:31.154Z,24.00
2022-12-13T20:34:02.333Z,26.42
2022-12-13T20:36:32.907Z,26.60
2022-12-13T20:39:02.197Z,24.23
2022-12-13T20:41:34.610Z,24.30
2022-12-13T20:44:04.957Z,25.20
2022-12-13T20:46:32.670Z,24.02
2022-12-13T20:49:06.324Z,23.33
2022-12-13T20:51:34.937Z,25.02
2022-12-13T20:54:05.464Z,25.95
2022-12-13T20:56:35.921Z,27.02
2022-12-13T20:59:08.749Z,26.10
2022-12-13T21:01:41.010Z,22.05
2022-12-13T21:04:11.175Z,20.75
2022-12-13T21:06:42.869Z,20.55
2022-12-13T21:09:11.563Z,20.13
2022-12-13T21:11:44.089Z,20.30
2022-12-13T21:14:22.251Z,21.75
2022-12-13T21:17:00.235Z,21.92
2022-12-13T21:19:39.450Z,23.52
2022-12-13T21:22:07.213Z,22.15
2022-12-13T21:24:34.395Z,22.30
2022-12-13T21:27:01.542Z,19.95
2022-12-13T21:29:28.685Z,21.00
2022-12-13T21:31:56.185Z,21.55
2022-12-13T21:34:23.711Z,22.73
2022-12-13T21:36:52.755Z,21.45
2022-12-13T21:39:23.348Z,23.13
2022-12-13T21:41:51.594Z,26.52
2022-12-13T21:44:19.538Z,30.55
2022-12-13T21:47:22.300Z,38.10
2022-12-13T21:49:35.538Z,41.35
2022-12-13T21:52:02.681Z,41.47
2022-12-13T21:54:29.720Z,45.83
2022-12-13T21:57:15.165Z,43.78
2022-12-13T21:59:42.225Z,37.15
2022-12-13T22:02:18.702Z,35.88
2022-12-13T22:04:51.016Z,35.05
2022-12-13T22:07:32.544Z,34.08
2022-12-13T22:10:01.573Z,32.22
2022-12-13T22:12:38.488Z,31.67
2022-12-13T22:15:15.990Z,29.67
2022-12-13T22:17:43.436Z,30.45
2022-12-13T22:20:14.286Z,27.15
2022-12-13T22:22:44.237Z,28.42
2022-12-13T22:25:11.500Z,26.52
2022-12-13T22:27:38.687Z,29.58
2022-12-13T22:30:06.804Z,24.42
2022-12-13T22:32:34.036Z,26.05
2022-12-13T22:35:04.850Z,23.98
2022-12-13T22:37:33.331Z,25.55
2022-12-13T22:40:08.378Z,23.98
2022-12-13T22:42:35.796Z,22.83
2022-12-13T22:45:03.019Z,21.73
2022-12-13T22:47:32.698Z,23.55
2022-12-13T22:49:59.802Z,25.13
2022-12-13T22:52:32.008Z,24.80
2022-12-13T22:55:00.881Z,23.92
2022-12-13T22:57:27.957Z,25.58
2022-12-13T22:59:55.053Z,27.02
2022-12-13T23:02:24.595Z,26.48
2022-12-13T23:04:51.785Z,27.65
2022-12-13T23:07:18.892Z,29.85
2022-12-13T23:09:46.178Z,30.95
2022-12-13T23:12:31.618Z,30.90
2022-12-13T23:14:58.749Z,31.23
2022-12-13T23:17:25.870Z,28.83
2022-12-13T23:19:53.636Z,29.95
2022-12-13T23:22:25.664Z,30.85
2022-12-13T23:24:56.282Z,30.45
2022-12-13T23:27:24.452Z,29.02
2022-12-13T23:29:51.640Z,27.00
2022-12-13T23:32:19.006Z,27.75
2022-12-13T23:34:48.571Z,28.35
2022-12-13T23:37:15.807Z,26.70
2022-12-13T23:39:42.985Z,27.95
2022-12-13T23:42:11.198Z,27.85
2022-12-13T23:44:38.315Z,26.67
2022-12-13T23:47:05.396Z,25.60
2022-12-13T23:49:34.664Z,27.55
2022-12-13T23:52:01.654Z,28.48
2022-12-13T23:54:31.108Z,28.70
2022-12-13T23:56:58.286Z,28.23
2022-12-13T23:59:27.257Z,28.88
